Time;durP1;ratioP1;P1;durP2;ratioP2;P2;SDS_P1;SDS_P2;PMS_P1;PMS_P2;Temp;Humidity;BMP_temperature;BMP_pressure;BME280_temperature;BME280_humidity;BME280_pressure;Samples;Min_cycle;Max_cycle;Signal;HPM_P1;HPM_P2
2021/08/03 00:01:51;;;;;;;5.93;4.57;;;;;;;22.47;42.91;101296.78;5024353;28;20033;-68
2021/08/03 00:04:22;;;;;;;5.97;4.65;;;;;;;22.49;42.63;101299.97;5030337;28;20033;-72
2021/08/03 00:06:57;;;;;;;6.78;4.43;;;;;;;22.46;42.78;101297.16;5019617;28;20045;-78
2021/08/03 00:09:29;;;;;;;8.05;5.28;;;;;;;22.40;42.88;101300.28;5012627;28;20496;-78
2021/08/03 00:11:55;;;;;;;8.30;4.47;;;;;;;22.36;42.77;101293.84;5013687;28;20048;-67
2021/08/03 00:14:21;;;;;;;6.60;4.78;;;;;;;22.34;42.71;101298.22;5013491;28;20490;-76
2021/08/03 00:16:48;;;;;;;5.53;3.78;;;;;;;22.25;43.01;101317.19;5033365;28;20033;-73
2021/08/03 00:19:14;;;;;;;6.70;5.25;;;;;;;22.21;43.07;101300.44;5032311;28;20109;-68
2021/08/03 00:21:40;;;;;;;6.30;5.35;;;;;;;22.20;42.93;101295.25;5033146;28;20383;-77
2021/08/03 00:24:06;;;;;;;9.32;5.43;;;;;;;22.09;43.18;101303.47;5032988;28;20068;-72
2021/08/03 00:26:32;;;;;;;6.57;4.57;;;;;;;22.11;43.08;101301.13;5032297;28;20662;-66
2021/08/03 00:28:59;;;;;;;5.97;4.72;;;;;;;22.01;43.41;101307.31;5032896;28;20036;-68
2021/08/03 00:31:26;;;;;;;7.05;4.90;;;;;;;21.96;43.56;101300.09;5032152;28;20029;-72
2021/08/03 00:33:55;;;;;;;6.22;4.60;;;;;;;21.85;43.91;101294.41;5032529;28;20496;-76
2021/08/03 00:36:24;;;;;;;7.80;5.27;;;;;;;21.96;43.70;101299.28;5022099;28;20396;-67
2021/08/03 00:38:52;;;;;;;7.70;5.25;;;;;;;21.87;43.81;101292.03;5011862;28;20302;-67
2021/08/03 00:41:22;;;;;;;5.25;4.68;;;;;;;21.86;43.91;101284.88;5014877;28;20030;-67
2021/08/03 00:43:48;;;;;;;6.93;5.32;;;;;;;21.85;44.01;101285.25;5014348;28;20022;-67
2021/08/03 00:46:13;;;;;;;7.88;5.68;;;;;;;21.93;43.75;101284.16;5014722;28;20018;-67
2021/08/03 00:48:39;;;;;;;6.68;5.03;;;;;;;21.92;43.90;101282.56;5014707;28;20456;-66
2021/08/03 00:51:05;;;;;;;8.80;5.28;;;;;;;21.92;43.88;101285.34;5014636;28;20036;-67
2021/08/03 00:53:30;;;;;;;8.02;5.65;;;;;;;21.96;43.73;101279.81;5014606;28;20033;-67
2021/08/03 00:56:00;;;;;;;6.35;5.28;;;;;;;21.92;43.97;101277.00;5014573;28;20030;-67
2021/08/03 00:58:26;;;;;;;;;;;;;;;21.90;43.87;101282.13;5014988;28;20036;-68
2021/08/03 01:00:53;;;;;;;7.05;5.50;;;;;;;21.93;43.72;101273.03;5014765;28;19914;-67
2021/08/03 01:03:20;;;;;;;9.48;7.28;;;;;;;21.92;43.86;101276.22;5014530;28;20053;-67
2021/08/03 01:06:13;;;;;;;10.45;6.28;;;;;;;21.86;43.98;101270.97;5014652;28;20046;-67
2021/08/03 01:09:12;;;;;;;7.47;5.70;;;;;;;21.79;44.04;101276.44;5009148;28;20065;-68
2021/08/03 01:11:45;;;;;;;10.90;6.25;;;;;;;21.81;44.02;101271.28;5000771;28;20551;-67
2021/08/03 01:14:16;;;;;;;8.45;5.95;;;;;;;21.83;44.13;101276.47;5014566;28;20052;-67
2021/08/03 01:16:54;;;;;;;11.82;6.10;;;;;;;21.85;43.98;101279.69;5014512;28;20381;-68
2021/08/03 01:19:57;;;;;;;7.00;5.88;;;;;;;21.88;44.00;101281.69;5014253;28;20030;-68
2021/08/03 01:23:00;;;;;;;9.10;6.10;;;;;;;21.89;43.93;101278.53;5014417;28;20034;-67
2021/08/03 01:25:53;;;;;;;7.55;5.72;;;;;;;21.83;44.33;101273.69;5014138;28;20476;-67
2021/08/03 01:28:36;;;;;;;7.60;6.32;;;;;;;21.81;44.00;101276.03;5015145;28;20054;-67
2021/08/03 01:31:21;;;;;;;7.72;5.60;;;;;;;21.79;44.33;101272.84;5022462;28;20548;-67
2021/08/03 01:33:50;;;;;;;7.45;6.07;;;;;;;21.74;44.24;101273.97;5024244;28;20480;-67
2021/08/03 01:36:17;;;;;;;8.48;6.63;;;;;;;21.69;44.24;101267.91;5020592;28;20036;-67
2021/08/03 01:38:45;;;;;;;8.75;6.25;;;;;;;21.69;44.16;101268.75;5022136;28;20115;-67
2021/08/03 01:41:15;;;;;;;8.90;6.15;;;;;;;21.64;44.17;101268.25;5024048;28;20021;-67
2021/08/03 01:43:42;;;;;;;;;;;;;;;21.57;44.22;101263.41;5027671;28;20017;-67
2021/08/03 01:46:10;;;;;;;8.38;6.28;;;;;;;21.59;44.23;101269.38;5033799;28;19960;-79
2021/08/03 01:48:37;;;;;;;8.35;5.78;;;;;;;21.54;44.25;101258.59;5033461;28;20167;-67
2021/08/03 01:51:03;;;;;;;8.23;5.78;;;;;;;21.49;44.42;101264.47;5033510;28;20030;-67
2021/08/03 01:53:28;;;;;;;7.85;5.95;;;;;;;21.48;44.40;101257.31;5033422;28;20132;-67
2021/08/03 01:55:57;;;;;;;8.07;6.95;;;;;;;21.46;44.40;101256.88;5032338;28;20075;-68
2021/08/03 01:58:24;;;;;;;10.52;6.07;;;;;;;21.45;44.33;101250.50;5033555;28;20057;-67
2021/08/03 02:00:55;;;;;;;8.85;5.97;;;;;;;21.43;44.68;101252.06;5033547;28;20112;-67
2021/08/03 02:03:27;;;;;;;8.07;6.85;;;;;;;21.43;44.28;101249.28;5033095;28;20499;-78
2021/08/03 02:05:55;;;;;;;8.25;6.30;;;;;;;21.40;44.56;101248.06;5033097;28;20033;-68
2021/08/03 02:08:22;;;;;;;10.32;6.93;;;;;;;21.38;44.47;101247.63;5033245;28;20498;-67
2021/08/03 02:10:48;;;;;;;11.05;6.97;;;;;;;21.44;44.37;101245.31;5033059;28;20032;-67
2021/08/03 02:13:16;;;;;;;7.50;6.15;;;;;;;21.36;44.61;101243.63;5032967;28;20021;-67
2021/08/03 02:15:42;;;;;;;8.13;5.95;;;;;;;21.40;44.47;101244.47;5033001;28;20032;-79
2021/08/03 02:18:08;;;;;;;9.57;6.65;;;;;;;21.41;44.50;101230.22;5033247;28;20032;-67
2021/08/03 02:20:34;;;;;;;10.00;6.22;;;;;;;21.43;44.57;101235.38;5033127;28;20376;-68
2021/08/03 02:22:59;;;;;;;6.82;5.82;;;;;;;21.41;44.45;101226.63;5032820;28;20032;-67
2021/08/03 02:25:25;;;;;;;9.32;6.78;;;;;;;21.42;44.28;101226.25;5033136;28;20032;-67
2021/08/03 02:27:53;;;;;;;13.93;6.47;;;;;;;21.43;44.37;101232.59;5033020;28;20429;-67
2021/08/03 02:30:19;;;;;;;7.40;5.85;;;;;;;21.43;44.37;101221.47;5032739;28;20021;-67
2021/08/03 02:32:53;;;;;;;14.35;6.93;;;;;;;21.41;44.55;101229.41;5032779;28;20567;-67
2021/08/03 02:35:32;;;;;;;11.93;6.88;;;;;;;21.36;44.50;101229.72;5032561;28;20077;-69
2021/08/03 02:38:06;;;;;;;10.13;6.50;;;;;;;21.38;44.57;101222.59;5032960;28;20025;-67
2021/08/03 02:40:31;;;;;;;9.10;6.10;;;;;;;21.40;44.42;101214.72;5032660;28;20510;-67
2021/08/03 02:42:58;;;;;;;10.95;6.82;;;;;;;21.41;44.65;101216.31;5032602;28;20022;-67
2021/08/03 02:45:24;;;;;;;10.10;7.10;;;;;;;21.39;44.59;101212.31;5032592;28;20426;-67
2021/08/03 02:47:55;;;;;;;12.13;7.90;;;;;;;21.40;44.53;101213.91;5032767;28;20040;-68
2021/08/03 02:50:25;;;;;;;9.52;6.80;;;;;;;21.36;44.69;101215.81;5032532;28;20026;-68
2021/08/03 02:52:56;;;;;;;9.25;6.55;;;;;;;21.33;44.69;101215.41;5032561;28;20029;-68
2021/08/03 02:55:24;;;;;;;11.43;7.47;;;;;;;21.31;44.55;101216.94;5032712;28;20032;-74
2021/08/03 02:58:01;;;;;;;8.02;6.38;;;;;;;21.44;44.14;101217.53;5032708;28;20487;-67
2021/08/03 03:00:32;;;;;;;8.00;6.25;;;;;;;21.30;44.19;101213.34;5032449;28;20430;-68
2021/08/03 03:03:00;;;;;;;8.43;6.60;;;;;;;21.31;44.19;101214.97;5032436;28;20049;-67
2021/08/03 03:05:31;;;;;;;8.52;6.28;;;;;;;21.32;44.14;101216.56;5032380;28;20026;-68
2021/08/03 03:08:05;;;;;;;10.43;6.43;;;;;;;21.32;44.00;101216.56;5034526;28;20026;-67
2021/08/03 03:10:35;;;;;;;10.27;7.30;;;;;;;21.28;43.94;101215.72;5033718;28;20021;-68
2021/08/03 03:13:08;;;;;;;9.68;6.93;;;;;;;;;;5036282;28;20017;-70
2021/08/03 03:15:35;;;;;;;9.93;7.80;;;;;;;21.29;44.22;101210.94;5036391;28;20025;-77
2021/08/03 03:18:02;;;;;;;12.93;7.93;;;;;;;21.27;44.32;101207.72;5036348;28;20022;-67
2021/08/03 03:20:29;;;;;;;11.23;8.18;;;;;;;21.21;44.40;101203.66;5036218;28;20104;-67
2021/08/03 03:22:56;;;;;;;11.70;9.10;;;;;;;21.29;44.38;101206.19;5036157;28;20475;-67
2021/08/03 03:25:24;;;;;;;14.80;8.98;;;;;;;21.30;44.39;101202.22;5036376;28;20074;-67
2021/08/03 03:27:54;;;;;;;15.25;9.38;;;;;;;21.34;44.28;101199.53;5036272;28;20026;-67
2021/08/03 03:30:20;;;;;;;;;;;;;;;21.28;44.42;101196.25;5036542;28;20033;-67
2021/08/03 03:32:47;;;;;;;13.18;9.55;;;;;;;21.29;44.17;101189.53;5036288;28;20047;-68
2021/08/03 03:35:20;;;;;;;21.33;8.80;;;;;;;21.15;44.60;101194.03;5035735;28;20049;-74
2021/08/03 03:37:46;;;;;;;12.05;8.45;;;;;;;21.11;44.60;101196.78;5036168;28;20025;-68
2021/08/03 03:40:17;;;;;;;14.80;9.60;;;;;;;21.23;44.27;101188.19;5035972;28;20112;-67
2021/08/03 03:42:43;;;;;;;11.82;9.18;;;;;;;21.24;44.06;101183.47;5035906;28;20406;-67
2021/08/03 03:45:11;;;;;;;13.95;9.52;;;;;;;21.24;44.21;101189.03;5035810;28;20168;-67
2021/08/03 03:47:40;;;;;;;12.80;10.20;;;;;;;21.25;44.05;101188.66;5035951;28;20441;-67
2021/08/03 03:50:12;;;;;;;13.60;8.37;;;;;;;;;;5035980;28;20080;-67
2021/08/03 03:52:52;;;;;;;13.70;8.93;;;;;;;21.27;44.04;101185.50;5035679;28;20341;-67
2021/08/03 03:55:21;;;;;;;11.23;8.65;;;;;;;21.28;43.91;101187.13;5035582;28;20017;-67
2021/08/03 03:57:47;;;;;;;11.75;8.32;;;;;;;21.24;43.93;101187.06;5034666;28;20044;-67
2021/08/03 04:00:14;;;;;;;12.27;8.55;;;;;;;21.19;43.96;101183.78;5034040;28;20554;-67
2021/08/03 04:02:42;;;;;;;13.57;8.35;;;;;;;21.08;44.00;101183.59;5035531;28;20026;-67
2021/08/03 04:05:11;;;;;;;12.80;7.65;;;;;;;21.05;43.74;101189.91;5035362;28;20087;-67
2021/08/03 04:07:37;;;;;;;15.30;7.55;;;;;;;21.03;43.61;101181.16;5035557;28;20124;-67
2021/08/03 04:10:08;;;;;;;12.30;8.57;;;;;;;20.93;43.33;101179.84;5035634;28;20530;-67
2021/08/03 04:12:34;;;;;;;10.60;8.07;;;;;;;20.81;43.19;101180.03;5035232;28;20033;-75
2021/08/03 04:15:00;;;;;;;12.00;8.07;;;;;;;20.74;43.20;101186.25;5035237;28;20021;-67
2021/08/03 04:17:26;;;;;;;12.63;7.78;;;;;;;20.74;43.04;101191.81;5035176;28;20025;-67
2021/08/03 04:19:51;;;;;;;23.20;9.07;;;;;;;20.76;42.91;101178.34;5033996;28;20025;-67
2021/08/03 04:22:17;;;;;;;10.73;7.82;;;;;;;20.56;43.54;101182.38;5035101;28;20422;-67
2021/08/03 04:24:43;;;;;;;11.10;8.43;;;;;;;20.55;43.62;101185.50;5035056;28;20022;-67
2021/08/03 04:27:08;;;;;;;12.43;8.50;;;;;;;20.57;43.59;101180.41;5034924;28;20029;-67
2021/08/03 04:29:34;;;;;;;14.60;8.18;;;;;;;20.61;43.69;101187.63;5034983;28;20110;-67
2021/08/03 04:32:00;;;;;;;12.07;8.10;;;;;;;20.66;43.62;101195.66;5034961;28;20043;-67
2021/08/03 04:34:25;;;;;;;9.25;7.45;;;;;;;20.58;43.89;101190.34;5034833;28;20093;-67
2021/08/03 04:36:51;;;;;;;12.15;8.65;;;;;;;20.57;43.72;101197.06;5034874;28;20443;-69
2021/08/03 04:39:17;;;;;;;16.55;9.13;;;;;;;20.44;43.98;101197.25;5034764;28;20029;-67
2021/08/03 04:41:42;;;;;;;12.02;8.80;;;;;;;20.41;44.10;101195.19;5034745;28;20026;-67
2021/08/03 04:44:08;;;;;;;14.23;9.18;;;;;;;20.51;44.07;101193.78;5034979;28;20033;-67
2021/08/03 04:46:34;;;;;;;11.82;8.40;;;;;;;20.60;43.98;101190.78;5034554;28;20025;-67
2021/08/03 04:49:00;;;;;;;15.98;9.57;;;;;;;20.53;44.36;101188.66;5034649;28;20032;-68
2021/08/03 04:51:25;;;;;;;14.25;8.38;;;;;;;20.71;43.96;101192.56;5034568;28;20128;-67
2021/08/03 04:53:51;;;;;;;10.55;9.00;;;;;;;20.72;44.06;101196.16;5034583;28;20104;-67
2021/08/03 04:56:16;;;;;;;12.68;8.57;;;;;;;20.76;44.00;101192.25;5034735;28;20018;-67
2021/08/03 04:58:42;;;;;;;13.38;8.73;;;;;;;20.80;43.98;101199.84;5034414;28;20059;-78
2021/08/03 05:01:08;;;;;;;13.27;8.48;;;;;;;20.78;44.14;101187.13;5034634;28;20033;-67
2021/08/03 05:03:34;;;;;;;12.05;9.07;;;;;;;20.78;44.05;101189.09;5034328;28;20032;-67
2021/08/03 05:06:00;;;;;;;12.27;8.27;;;;;;;20.84;43.96;101189.59;5034329;28;20100;-67
2021/08/03 05:08:25;;;;;;;10.88;7.28;;;;;;;20.85;43.96;101189.19;5034202;28;20117;-67
2021/08/03 05:10:51;;;;;;;13.88;8.25;;;;;;;20.86;43.88;101182.50;5034205;28;20018;-67
2021/08/03 05:13:16;;;;;;;13.13;8.45;;;;;;;20.80;44.00;101183.19;5034202;28;20029;-67
2021/08/03 05:15:42;;;;;;;12.43;8.30;;;;;;;20.89;44.05;101186.50;5034110;28;20025;-78
2021/08/03 05:18:07;;;;;;;15.90;9.98;;;;;;;20.99;43.94;101188.63;5033989;28;20018;-67
2021/08/03 05:20:33;;;;;;;11.05;9.75;;;;;;;21.08;44.14;101182.81;5033962;28;20112;-67
2021/08/03 05:22:59;;;;;;;13.88;9.38;;;;;;;21.16;44.29;101181.75;5034005;28;20025;-67
2021/08/03 05:25:25;;;;;;;15.50;9.65;;;;;;;21.22;44.46;101178.28;5033853;28;20025;-67
2021/08/03 05:27:51;;;;;;;14.00;10.40;;;;;;;21.27;44.54;101185.50;5033796;28;20036;-73
2021/08/03 05:30:16;;;;;;;19.30;9.52;;;;;;;21.35;44.63;101187.22;5033630;28;20025;-78
2021/08/03 05:32:42;;;;;;;15.38;10.70;;;;;;;21.48;44.57;101185.81;5034075;28;20100;-67
2021/08/03 05:35:08;;;;;;;13.93;10.13;;;;;;;21.55;44.81;101183.16;5033675;28;20447;-67
2021/08/03 05:37:36;;;;;;;16.30;10.27;;;;;;;21.51;45.12;101185.06;5033728;28;20022;-67
2021/08/03 05:40:05;;;;;;;20.98;11.07;;;;;;;21.50;45.40;101177.91;5033628;28;20022;-67
2021/08/03 05:42:31;;;;;;;16.42;10.88;;;;;;;21.68;45.13;101177.31;5033711;28;20108;-70
2021/08/03 05:44:57;;;;;;;11.63;9.57;;;;;;;21.85;45.05;101180.34;5033413;28;20514;-67
2021/08/03 05:47:22;;;;;;;19.25;10.45;;;;;;;21.89;45.28;101183.97;5033318;28;20036;-76
2021/08/03 05:49:48;;;;;;;15.80;9.88;;;;;;;21.90;45.58;101184.75;5033477;28;20045;-66
2021/08/03 05:52:13;;;;;;;19.05;11.00;;;;;;;22.07;45.29;101186.16;5033421;28;20414;-66
2021/08/03 05:54:39;;;;;;;20.42;9.98;;;;;;;22.29;45.11;101179.69;5033404;28;20506;-69
2021/08/03 05:57:05;;;;;;;15.60;9.57;;;;;;;22.34;45.16;101178.50;5033343;28;20025;-67
2021/08/03 05:59:30;;;;;;;13.95;8.63;;;;;;;22.45;45.17;101173.06;5033314;28;20025;-66
2021/08/03 06:01:56;;;;;;;13.30;8.32;;;;;;;22.52;44.93;101170.31;5033554;28;20033;-66
2021/08/03 06:04:22;;;;;;;19.73;9.60;;;;;;;22.49;45.23;101169.09;5033106;28;20421;-66
2021/08/03 06:06:49;;;;;;;21.85;9.90;;;;;;;22.66;45.14;101178.81;5030126;28;20026;-80
2021/08/03 06:09:15;;;;;;;13.43;9.45;;;;;;;22.78;45.18;101183.28;5021516;28;20060;-68
2021/08/03 06:11:46;;;;;;;18.15;16.42;;;;;;;22.78;45.61;101180.50;5022944;28;20037;-75
2021/08/03 06:14:12;;;;;;;14.90;9.55;;;;;;;23.00;44.94;101168.38;5021867;28;20026;-79
2021/08/03 06:16:38;;;;;;;13.13;9.25;;;;;;;23.19;44.83;101176.44;5021807;28;20026;-66
2021/08/03 06:19:05;;;;;;;15.38;9.35;;;;;;;23.25;45.24;101168.53;5022965;28;20021;-66
2021/08/03 06:21:31;;;;;;;16.90;11.13;;;;;;;23.41;45.45;101173.78;5023530;28;20079;-67
2021/08/03 06:23:57;;;;;;;14.93;9.88;;;;;;;23.53;45.36;101179.84;5013284;28;20057;-67
2021/08/03 06:26:23;;;;;;;14.20;10.02;;;;;;;23.65;45.18;101178.72;5013343;28;20061;-73
2021/08/03 06:28:54;;;;;;;14.98;11.90;;;;;;;23.60;45.64;101176.31;5013079;28;20025;-71
2021/08/03 06:31:20;;;;;;;12.68;8.75;;;;;;;23.69;45.44;101162.81;5013181;28;20033;-78
2021/08/03 06:33:49;;;;;;;17.35;10.93;;;;;;;23.68;45.95;101174.34;5012806;28;20042;-68
2021/08/03 06:36:15;;;;;;;13.65;9.68;;;;;;;23.84;45.49;101160.88;5013233;28;20018;-76
2021/08/03 06:38:41;;;;;;;12.77;10.65;;;;;;;23.90;45.36;101170.47;5013248;28;20373;-76
2021/08/03 06:41:22;;;;;;;19.92;11.43;;;;;;;24.05;45.89;101162.94;5012668;28;20240;-75
2021/08/03 06:44:22;;;;;;;18.08;11.73;;;;;;;24.28;45.60;101177.34;5012805;28;20033;-77
2021/08/03 06:46:52;;;;;;;19.67;12.30;;;;;;;24.28;45.60;101177.34;5009504;28;20045;-69
2021/08/03 06:49:19;;;;;;;24.35;13.23;;;;;;;24.38;45.95;101175.78;5013119;28;20034;-76
2021/08/03 06:51:46;;;;;;;22.58;13.25;;;;;;;24.58;45.68;101179.00;5012719;28;20053;-77
2021/08/03 06:54:12;;;;;;;19.08;12.95;;;;;;;24.79;45.60;101176.22;5012789;28;20034;-72
2021/08/03 06:57:11;;;;;;;21.75;13.32;;;;;;;24.91;45.42;101173.00;5012767;28;20037;-69
2021/08/03 06:59:46;;;;;;;15.77;11.00;;;;;;;25.04;45.40;101181.81;5013099;28;20026;-71
2021/08/03 07:02:16;;;;;;;15.80;12.32;;;;;;;24.99;45.87;101173.00;5012746;28;20030;-69
2021/08/03 07:04:55;;;;;;;20.20;12.30;;;;;;;24.91;45.76;101172.19;5012752;28;20030;-68
2021/08/03 07:07:22;;;;;;;15.60;11.38;;;;;;;25.10;45.70;101179.41;5012870;28;20399;-69
2021/08/03 07:09:48;;;;;;;16.35;10.15;;;;;;;25.14;45.54;101174.59;5012620;28;20472;-68
2021/08/03 07:12:15;;;;;;;16.17;11.27;;;;;;;25.18;45.26;101170.59;5012607;28;20026;-75
2021/08/03 07:14:41;;;;;;;16.70;12.35;;;;;;;25.14;45.43;101180.97;5012649;28;20508;-68
2021/08/03 07:17:13;;;;;;;16.60;11.70;;;;;;;25.28;45.02;101177.38;5012694;28;20029;-76
2021/08/03 07:19:40;;;;;;;15.68;11.20;;;;;;;25.45;45.02;101173.72;5012580;28;20026;-68
2021/08/03 07:22:08;;;;;;;18.40;10.45;;;;;;;25.51;44.71;101176.91;5012431;28;20029;-69
2021/08/03 07:24:34;;;;;;;18.88;11.50;;;;;;;25.63;44.16;101184.88;5012529;28;20369;-77
2021/08/03 07:27:00;;;;;;;15.10;10.52;;;;;;;25.71;43.83;101185.63;5012642;28;20049;-76
2021/08/03 07:29:26;;;;;;;12.95;9.23;;;;;;;25.77;43.65;101191.63;5012504;28;20112;-68
2021/08/03 07:31:53;;;;;;;13.45;9.98;;;;;;;25.72;43.93;101187.25;5012746;28;20088;-68
2021/08/03 07:34:19;;;;;;;14.52;10.30;;;;;;;25.67;43.80;101184.84;5012287;28;20381;-68
2021/08/03 07:36:45;;;;;;;15.10;9.93;;;;;;;25.80;43.41;101188.81;5011337;28;20071;-69
2021/08/03 07:39:10;;;;;;;21.15;11.00;;;;;;;25.76;43.41;101185.22;5012383;28;20030;-69
2021/08/03 07:41:37;;;;;;;15.88;10.48;;;;;;;25.87;43.42;101176.78;5012340;28;20052;-68
2021/08/03 07:44:04;;;;;;;16.77;10.90;;;;;;;25.85;43.25;101174.41;5012243;28;20026;-72
2021/08/03 07:46:31;;;;;;;22.77;11.45;;;;;;;25.89;42.82;101177.97;5012317;28;20022;-77
2021/08/03 07:48:58;;;;;;;16.88;10.85;;;;;;;25.97;42.75;101173.13;5012286;28;20026;-70
2021/08/03 07:51:25;;;;;;;20.65;10.88;;;;;;;25.89;42.76;101177.97;5012557;28;20028;-75
2021/08/03 07:53:51;;;;;;;15.85;11.20;;;;;;;25.89;42.91;101175.16;5014440;28;20018;-77
2021/08/03 07:56:17;;;;;;;15.63;10.48;;;;;;;25.77;42.93;101184.03;5015835;28;20026;-75
2021/08/03 07:58:43;;;;;;;18.17;11.27;;;;;;;25.72;43.21;101184.44;5015952;28;20022;-73
2021/08/03 08:01:08;;;;;;;17.65;10.85;;;;;;;26.20;42.21;101178.19;5015666;28;20061;-69
2021/08/03 08:03:35;;;;;;;20.95;9.63;;;;;;;26.25;41.93;101186.19;5015729;28;20022;-79
2021/08/03 08:06:02;;;;;;;15.27;9.88;;;;;;;26.29;41.80;101184.13;5015897;28;20026;-75
2021/08/03 08:08:28;;;;;;;14.63;10.13;;;;;;;26.32;41.28;101183.34;5029210;28;20041;-79
2021/08/03 08:10:53;;;;;;;15.70;10.05;;;;;;;26.26;41.83;101185.75;5015295;28;20026;-79
2021/08/03 08:13:19;;;;;;;13.70;10.52;;;;;;;26.23;41.60;101188.59;5015340;28;20022;-74
2021/08/03 08:15:45;;;;;;;12.57;9.38;;;;;;;26.13;41.70;101183.84;5015014;28;20022;-72
2021/08/03 08:18:11;;;;;;;15.32;9.77;;;;;;;26.18;41.57;101186.22;5014821;28;20030;-79
2021/08/03 08:20:40;;;;;;;17.02;11.57;;;;;;;26.12;42.11;101187.84;5015234;28;20018;-73
2021/08/03 08:23:07;;;;;;;20.73;11.38;;;;;;;26.18;41.77;101186.22;5014060;28;20416;-73
2021/08/03 08:25:33;;;;;;;14.45;10.50;;;;;;;26.26;41.70;101196.97;5015250;28;20033;-73
2021/08/03 08:27:59;;;;;;;14.02;10.48;;;;;;;26.26;41.74;101201.78;5015101;28;20499;-79
2021/08/03 08:30:25;;;;;;;17.40;11.02;;;;;;;26.24;41.32;101195.78;5030348;28;20030;-79
2021/08/03 08:32:51;;;;;;;17.00;11.88;;;;;;;26.06;41.54;101203.47;5017163;28;20036;-75
2021/08/03 08:35:17;;;;;;;14.75;10.48;;;;;;;26.26;41.10;101207.38;5021545;28;20070;-72
2021/08/03 08:37:42;;;;;;;18.25;11.07;;;;;;;26.25;41.23;101200.19;5023449;28;20419;-79
2021/08/03 08:40:09;;;;;;;16.77;11.27;;;;;;;26.25;41.20;101200.19;5021359;28;20018;-76
2021/08/03 08:42:37;;;;;;;21.42;10.90;;;;;;;26.21;41.39;101210.59;5020264;28;20113;-80
2021/08/03 08:45:04;;;;;;;16.27;11.30;;;;;;;26.23;41.23;101199.81;5011490;28;20030;-74
2021/08/03 08:47:31;;;;;;;18.42;11.70;;;;;;;26.27;41.07;101204.16;5010862;28;20032;-80
2021/08/03 08:50:05;;;;;;;15.18;10.75;;;;;;;26.38;40.98;101200.50;5012995;28;20038;-80
2021/08/03 08:52:35;;;;;;;19.70;11.25;;;;;;;26.43;41.08;101200.88;5013445;28;20025;-78
2021/08/03 08:55:01;;;;;;;19.67;11.32;;;;;;;26.42;41.17;101207.69;5015960;28;20025;-89
2021/08/03 08:57:27;;;;;;;20.95;11.10;;;;;;;26.41;40.99;101200.50;5012852;28;20042;-82
2021/08/03 08:59:52;;;;;;;29.92;13.30;;;;;;;26.58;41.00;101198.78;5016549;28;20411;-82
2021/08/03 09:02:43;;;;;;;16.65;11.15;;;;;;;26.72;40.83;101195.06;5031613;28;20022;-79
2021/08/03 09:05:14;;;;;;;14.48;10.65;;;;;;;26.75;40.40;101197.88;5031229;28;20034;-80
2021/08/03 09:07:50;;;;;;;20.02;11.55;;;;;;;26.76;40.28;101204.25;5032856;28;20112;-78
2021/08/03 09:10:38;;;;;;;17.83;11.88;;;;;;;26.72;40.13;101192.28;5031217;28;20052;-79
2021/08/03 09:13:18;;;;;;;15.85;11.75;;;;;;;26.65;40.63;101201.53;5030873;28;20057;-83
2021/08/03 09:15:56;;;;;;;20.25;11.02;;;;;;;26.78;40.36;101205.44;5032222;28;20037;-79
2021/08/03 09:18:28;;;;;;;18.67;12.27;;;;;;;26.77;40.08;101200.25;5030152;28;20030;-78
2021/08/03 09:20:55;;;;;;;15.95;10.80;;;;;;;26.86;40.11;101194.97;5024802;28;20084;-80
2021/08/03 09:23:42;;;;;;;19.58;11.63;;;;;;;26.87;40.12;101181.72;5011411;28;20030;-77
2021/08/03 09:26:09;;;;;;;22.10;12.20;;;;;;;26.80;40.11;101191.78;5016760;28;20177;-78
2021/08/03 09:28:53;;;;;;;14.68;10.23;;;;;;;26.92;39.93;101196.09;5031598;28;20510;-79
2021/08/03 09:31:20;;;;;;;18.67;9.00;;;;;;;26.89;40.00;101191.31;5030285;28;20087;-79
2021/08/03 09:33:47;;;;;;;13.25;9.80;;;;;;;26.86;40.06;101191.34;5030421;28;20076;-80
2021/08/03 09:36:12;;;;;;;14.68;9.23;;;;;;;26.87;39.89;101192.94;5030342;28;20478;-72
2021/08/03 09:38:38;;;;;;;11.68;7.72;;;;;;;27.06;39.45;101184.78;5030930;28;20033;-84
2021/08/03 09:41:09;;;;;;;11.25;7.18;;;;;;;27.21;39.67;101190.25;5030700;28;22007;-83
2021/08/03 09:43:35;;;;;;;11.68;7.40;;;;;;;27.45;38.70;101188.41;5018168;28;20034;-72
2021/08/03 09:46:01;;;;;;;7.90;6.45;;;;;;;27.70;38.16;101179.72;5014075;28;20033;-72
2021/08/03 09:48:30;;;;;;;12.20;7.85;;;;;;;27.64;38.35;101182.13;5013829;28;20365;-75
2021/08/03 09:51:06;;;;;;;13.40;7.97;;;;;;;27.62;38.44;101182.56;5013981;28;20565;-80
2021/08/03 09:53:43;;;;;;;12.32;7.47;;;;;;;27.88;37.96;101181.06;5013742;28;20504;-72
2021/08/03 09:56:12;;;;;;;9.98;7.80;;;;;;;27.85;37.74;101183.94;5012450;28;20547;-74
2021/08/03 09:59:11;;;;;;;13.07;8.07;;;;;;;27.72;37.61;101178.06;5013680;28;20014;-71
2021/08/03 10:01:39;;;;;;;9.52;6.85;;;;;;;27.65;37.76;101172.50;4991614;28;20400;-75
2021/08/03 10:04:10;;;;;;;12.38;7.22;;;;;;;27.78;37.44;101179.19;5012306;28;20041;-79
2021/08/03 10:06:37;;;;;;;12.43;7.88;;;;;;;27.84;37.24;101176.72;5013631;28;20030;-73
2021/08/03 10:09:08;;;;;;;17.75;7.63;;;;;;;27.84;37.66;101176.72;5012260;28;20037;-71
2021/08/03 10:11:34;;;;;;;9.75;7.10;;;;;;;27.91;37.44;101171.00;5012206;28;20053;-71
2021/08/03 10:13:59;;;;;;;15.70;10.55;;;;;;;28.02;37.62;101168.03;5011826;28;20111;-71
2021/08/03 10:16:26;;;;;;;13.00;9.18;;;;;;;27.87;38.04;101170.25;5011462;28;20030;-72
2021/08/03 10:19:01;;;;;;;19.13;11.00;;;;;;;27.89;38.20;101173.44;5012278;28;20034;-72
2021/08/03 10:21:31;;;;;;;25.88;12.02;;;;;;;27.85;38.25;101173.50;5011834;28;20112;-72
2021/08/03 10:23:58;;;;;;;;;;;;;;;27.90;38.27;101166.63;5012233;28;20057;-72
2021/08/03 10:26:24;;;;;;;19.42;10.50;;;;;;;27.80;38.37;101170.34;5011723;28;20426;-73
2021/08/03 10:29:25;;;;;;;13.02;9.18;;;;;;;27.81;38.38;101175.56;5010122;28;20034;-74
2021/08/03 10:31:52;;;;;;;12.57;9.10;;;;;;;27.63;38.71;101175.72;5012096;28;20026;-75
2021/08/03 10:34:42;;;;;;;12.85;9.43;;;;;;;27.41;39.05;101168.78;5013094;28;20058;-73
2021/08/03 10:37:12;;;;;;;15.38;9.55;;;;;;;27.50;39.04;101166.25;5017841;28;20038;-81
2021/08/03 10:40:10;;;;;;;15.65;9.10;;;;;;;27.33;39.20;101168.06;5036061;28;20043;-72
2021/08/03 10:42:36;;;;;;;18.23;9.80;;;;;;;27.49;38.94;101173.09;5001039;28;20396;-74
2021/08/03 10:45:17;;;;;;;12.52;8.10;;;;;;;27.46;39.05;101168.34;5025556;28;20030;-81
2021/08/03 10:47:43;;;;;;;13.60;8.82;;;;;;;27.57;39.02;101162.59;5023754;28;20399;-73
2021/08/03 10:50:32;;;;;;;15.60;8.07;;;;;;;27.57;38.94;101166.19;5025473;28;20107;-81
2021/08/03 10:52:59;;;;;;;10.27;7.80;;;;;;;27.72;38.66;101164.03;5024754;28;20642;-72
2021/08/03 10:55:28;;;;;;;11.68;7.15;;;;;;;27.64;38.77;101160.47;5033249;28;20090;-85
2021/08/03 10:58:16;;;;;;;10.18;7.82;;;;;;;27.82;38.53;101149.06;5033012;28;20480;-85
2021/08/03 11:00:49;;;;;;;10.75;7.68;;;;;;;27.98;38.24;101153.28;5023058;28;20183;-87
2021/08/03 11:03:30;;;;;;;11.40;7.82;;;;;;;28.13;38.11;101149.84;5032784;28;20033;-83
2021/08/03 11:05:57;;;;;;;11.68;7.20;;;;;;;28.22;37.96;101152.09;5032699;28;20025;-77
2021/08/03 11:08:29;;;;;;;9.40;6.88;;;;;;;28.22;38.06;101149.28;5032676;28;20369;-83
2021/08/03 11:11:06;;;;;;;10.95;6.88;;;;;;;28.38;37.67;101157.09;5032102;28;20037;-77
2021/08/03 11:13:48;;;;;;;13.70;7.90;;;;;;;28.33;37.55;101157.56;5046853;28;20017;-85
2021/08/03 11:16:23;;;;;;;11.38;7.63;;;;;;;28.36;37.84;101159.56;5033042;28;20029;-72
2021/08/03 11:18:54;;;;;;;10.40;7.15;;;;;;;28.41;37.77;101150.63;5031167;28;20049;-72
2021/08/03 11:21:25;;;;;;;12.15;7.57;;;;;;;28.65;37.41;101157.88;5030824;28;20381;-72
2021/08/03 11:24:13;;;;;;;32.38;9.65;;;;;;;28.65;37.26;101159.91;5031837;28;20028;-72
2021/08/03 11:26:50;;;;;;;13.40;8.10;;;;;;;28.82;37.16;101150.34;5029673;28;20441;-72
2021/08/03 11:29:21;;;;;;;14.23;7.13;;;;;;;28.85;37.22;101148.69;5034028;28;20112;-72
2021/08/03 11:31:46;;;;;;;14.95;9.05;;;;;;;28.90;37.15;101151.00;5035802;28;20080;-72